Time;durP1;ratioP1;P1;durP2;ratioP2;P2;SDS_P1;SDS_P2;PMS_P1;PMS_P2;Temp;Humidity;BMP_temperature;BMP_pressure;BME280_temperature;BME280_humidity;BME280_pressure;Samples;Min_cycle;Max_cycle;Signal;HPM_P1;HPM_P2
2022/04/08 00:02:09;;;;;;;8.13;1.90;;;;;;;;;;5029352;28;20038;-71
2022/04/08 00:04:35;;;;;;;7.38;0.80;;;;;;;;;;5022173;28;20042;-71
2022/04/08 00:07:01;;;;;;;5.75;0.80;;;;;;;;;;5028247;28;20703;-71
2022/04/08 00:09:28;;;;;;;3.97;0.70;;;;;;;;;;5029934;28;20036;-71
2022/04/08 00:11:55;;;;;;;7.90;0.60;;;;;;;;;;5031359;28;20025;-71
2022/04/08 00:14:21;;;;;;;6.18;0.65;;;;;;;;;;5028713;28;20377;-71
2022/04/08 00:16:47;;;;;;;3.92;0.60;;;;;;;;;;5030046;28;20034;-71
2022/04/08 00:19:14;;;;;;;4.75;1.08;;;;;;;;;;5029760;28;20030;-71
2022/04/08 00:21:40;;;;;;;7.10;0.85;;;;;;;;;;5062764;28;20033;-71
2022/04/08 00:24:07;;;;;;;7.22;1.58;;;;;;;;;;5053941;28;20068;-72
2022/04/08 00:26:33;;;;;;;6.80;0.90;;;;;;;;;;5011666;28;20025;-72
2022/04/08 00:28:59;;;;;;;7.57;1.10;;;;;;;;;;5028936;28;20044;-71
2022/04/08 00:31:26;;;;;;;5.05;0.70;;;;;;;;;;5031778;28;20951;-71
2022/04/08 00:33:52;;;;;;;4.97;1.10;;;;;;;;;;5029588;28;20049;-71
2022/04/08 00:36:18;;;;;;;7.65;1.20;;;;;;;;;;5061426;28;20039;-70
2022/04/08 00:38:44;;;;;;;9.68;1.27;;;;;;;;;;5028087;28;20025;-70
2022/04/08 00:41:10;;;;;;;8.18;2.17;;;;;;;;;;5029018;28;20083;-70
2022/04/08 00:43:38;;;;;;;7.60;1.00;;;;;;;;;;5030476;28;20033;-70
2022/04/08 00:46:04;;;;;;;6.80;1.10;;;;;;;;;;5027135;28;20083;-70
2022/04/08 00:48:31;;;;;;;8.27;1.58;;;;;;;;;;5035730;28;20040;-70
2022/04/08 00:50:58;;;;;;;7.28;1.20;;;;;;;;;;5030490;28;20028;-71
2022/04/08 00:53:24;;;;;;;6.88;0.95;;;;;;;;;;5030711;28;20034;-71
2022/04/08 00:55:50;;;;;;;8.40;1.52;;;;;;;;;;5027729;28;20409;-70
2022/04/08 00:58:17;;;;;;;7.63;1.20;;;;;;;;;;5031079;28;20122;-70
2022/04/08 01:00:43;;;;;;;9.18;1.23;;;;;;;;;;5026376;28;20037;-70
2022/04/08 01:03:09;;;;;;;9.50;0.88;;;;;;;;;;5031533;28;20108;-70
2022/04/08 01:05:35;;;;;;;11.90;1.52;;;;;;;;;;5025602;28;20057;-70
2022/04/08 01:08:03;;;;;;;13.23;1.75;;;;;;;;;;5026081;28;20033;-71
2022/04/08 01:10:29;;;;;;;7.40;1.58;;;;;;;;;;5035211;28;20052;-70
2022/04/08 01:12:55;;;;;;;15.55;2.05;;;;;;;;;;5030836;28;20065;-70
2022/04/08 01:15:22;;;;;;;5.47;0.88;;;;;;;;;;5028179;28;20033;-70
2022/04/08 01:17:49;;;;;;;5.35;1.13;;;;;;;;;;5029660;28;20036;-70
2022/04/08 01:20:15;;;;;;;6.30;1.15;;;;;;;;;;5027376;28;20041;-71
2022/04/08 01:22:42;;;;;;;9.95;1.50;;;;;;;;;;5031466;28;20032;-71
2022/04/08 01:25:08;;;;;;;9.88;1.10;;;;;;;;;;5028555;28;20029;-71
2022/04/08 01:27:37;;;;;;;13.25;2.85;;;;;;;;;;5029901;28;20053;-71
2022/04/08 01:30:07;;;;;;;24.35;2.40;;;;;;;;;;5026557;28;20394;-71
2022/04/08 01:32:33;;;;;;;11.23;1.40;;;;;;;;;;5017831;28;20037;-71
2022/04/08 01:35:00;;;;;;;10.70;1.50;;;;;;;;;;5026540;28;20141;-71
2022/04/08 01:37:26;;;;;;;19.25;1.35;;;;;;;;;;5031201;28;20025;-71
2022/04/08 01:39:52;;;;;;;15.32;2.30;;;;;;;;;;5028577;28;20036;-71
2022/04/08 01:42:23;;;;;;;29.30;6.22;;;;;;;;;;5013307;28;20450;-71
2022/04/08 01:44:49;;;;;;;83.60;32.05;;;;;;;;;;5027895;28;20030;-71
2022/04/08 01:47:15;;;;;;;114.18;44.85;;;;;;;;;;5030448;28;20037;-71
2022/04/08 01:49:41;;;;;;;77.30;28.45;;;;;;;;;;5031261;28;20033;-71
2022/04/08 01:52:08;;;;;;;35.63;9.90;;;;;;;;;;5034700;28;20051;-71
2022/04/08 01:54:34;;;;;;;17.55;2.80;;;;;;;;;;5036200;28;20119;-71
2022/04/08 01:57:00;;;;;;;16.75;2.63;;;;;;;;;;5030973;28;20500;-71
2022/04/08 01:59:26;;;;;;;11.73;1.98;;;;;;;;;;5045816;28;20570;-71
2022/04/08 02:01:52;;;;;;;18.08;2.70;;;;;;;;;;5036798;28;20405;-72
2022/04/08 02:04:18;;;;;;;13.02;1.80;;;;;;;;;;5031875;28;20034;-72
2022/04/08 02:06:44;;;;;;;18.10;2.50;;;;;;;;;;5029814;28;20080;-72
2022/04/08 02:09:12;;;;;;;14.98;1.70;;;;;;;;;;5029681;28;20026;-72
2022/04/08 02:11:38;;;;;;;15.85;1.98;;;;;;;;;;5033383;28;20389;-72
2022/04/08 02:14:04;;;;;;;19.85;2.90;;;;;;;;;;5030250;28;20033;-72
2022/04/08 02:16:30;;;;;;;13.55;3.10;;;;;;;;;;5033016;28;20044;-70
2022/04/08 02:18:59;;;;;;;24.10;2.95;;;;;;;;;;5034549;28;20462;-70
2022/04/08 02:21:25;;;;;;;14.02;1.40;;;;;;;;;;5032064;28;20045;-70
2022/04/08 02:23:53;;;;;;;12.73;2.42;;;;;;;;;;5031742;28;20079;-71
2022/04/08 02:26:19;;;;;;;15.40;2.30;;;;;;;;;;5032339;28;20112;-71
2022/04/08 02:28:45;;;;;;;11.98;1.70;;;;;;;;;;5034492;28;20043;-71
2022/04/08 02:31:11;;;;;;;12.65;1.92;;;;;;;;;;5031689;28;20123;-71
2022/04/08 02:33:37;;;;;;;13.52;1.75;;;;;;;;;;5034016;28;20034;-71
2022/04/08 02:36:04;;;;;;;14.10;3.53;;;;;;;;;;5030872;28;20042;-71
2022/04/08 02:38:30;;;;;;;10.15;1.35;;;;;;;;;;5032964;28;20080;-71
2022/04/08 02:40:56;;;;;;;18.52;2.53;;;;;;;;;;5033196;28;20032;-71
2022/04/08 02:43:22;;;;;;;11.23;1.60;;;;;;;;;;5032769;28;20052;-71
2022/04/08 02:45:49;;;;;;;14.63;2.38;;;;;;;;;;5032400;28;20037;-71
2022/04/08 02:48:15;;;;;;;19.40;2.10;;;;;;;;;;5009737;28;20037;-71
2022/04/08 02:50:42;;;;;;;8.27;1.40;;;;;;;;;;5024948;28;20101;-71
2022/04/08 02:53:08;;;;;;;44.53;18.08;;;;;;;;;;5028492;28;20151;-70
2022/04/08 02:55:35;;;;;;;13.10;3.55;;;;;;;;;;5026615;28;20030;-70
2022/04/08 02:58:01;;;;;;;24.60;5.03;;;;;;;;;;5030852;28;20032;-69
2022/04/08 03:00:27;;;;;;;14.73;3.65;;;;;;;;;;5032728;28;20037;-71
2022/04/08 03:02:53;;;;;;;19.75;2.50;;;;;;;;;;5032751;28;20112;-71
2022/04/08 03:05:20;;;;;;;21.90;2.92;;;;;;;;;;5032003;28;20076;-71
2022/04/08 03:07:46;;;;;;;12.85;2.67;;;;;;;;;;5028321;28;20045;-71
2022/04/08 03:10:13;;;;;;;15.20;1.48;;;;;;;;;;5031655;28;20665;-71
2022/04/08 03:12:39;;;;;;;26.95;2.83;;;;;;;;;;5022995;28;20485;-71
2022/04/08 03:15:06;;;;;;;15.98;3.05;;;;;;;;;;5023585;28;20034;-71
2022/04/08 03:17:32;;;;;;;15.75;2.03;;;;;;;;;;5025195;28;20413;-71
2022/04/08 03:19:58;;;;;;;16.27;1.50;;;;;;;;;;5029948;28;20122;-71
2022/04/08 03:22:24;;;;;;;8.65;2.00;;;;;;;;;;5032553;28;20039;-71
2022/04/08 03:24:51;;;;;;;7.28;1.20;;;;;;;;;;5030860;28;20061;-71
2022/04/08 03:27:18;;;;;;;12.07;1.52;;;;;;;;;;5029483;28;20048;-71
2022/04/08 03:29:44;;;;;;;6.20;1.20;;;;;;;;;;5031222;28;20048;-71
2022/04/08 03:32:10;;;;;;;7.45;0.98;;;;;;;;;;5031438;28;20029;-71
2022/04/08 03:34:37;;;;;;;4.80;0.85;;;;;;;;;;5030894;28;20032;-71
2022/04/08 03:37:03;;;;;;;2.90;0.63;;;;;;;;;;5031685;28;20045;-71
2022/04/08 03:39:29;;;;;;;2.50;0.50;;;;;;;;;;5018632;28;20029;-71
2022/04/08 03:41:55;;;;;;;6.63;0.40;;;;;;;;;;5031142;28;20044;-71
2022/04/08 03:44:21;;;;;;;4.32;0.60;;;;;;;;;;5031990;28;20381;-70
2022/04/08 03:46:47;;;;;;;1.63;0.45;;;;;;;;;;5032088;28;20042;-71
2022/04/08 03:49:17;;;;;;;2.53;0.40;;;;;;;;;;5030107;28;20037;-71
2022/04/08 03:51:44;;;;;;;3.30;0.45;;;;;;;;;;5030402;28;20026;-71
2022/04/08 03:54:10;;;;;;;2.15;0.88;;;;;;;;;;5031229;28;20080;-71
2022/04/08 03:56:36;;;;;;;2.75;0.40;;;;;;;;;;5028167;28;20052;-71
2022/04/08 03:59:02;;;;;;;5.47;0.40;;;;;;;;;;5030693;28;20108;-71
2022/04/08 04:01:29;;;;;;;9.77;0.70;;;;;;;;;;5032503;28;20370;-71
2022/04/08 04:03:55;;;;;;;5.10;0.47;;;;;;;;;;5025072;28;20402;-71
2022/04/08 04:06:21;;;;;;;3.17;0.63;;;;;;;;;;5062128;28;20065;-71
2022/04/08 04:08:48;;;;;;;3.45;0.43;;;;;;;;;;5028001;28;20046;-71
2022/04/08 04:11:16;;;;;;;1.30;0.50;;;;;;;;;;5028729;28;20041;-71
2022/04/08 04:13:42;;;;;;;4.60;0.70;;;;;;;;;;5030684;28;20505;-71
2022/04/08 04:16:08;;;;;;;4.63;1.00;;;;;;;;;;5027208;28;20036;-71
2022/04/08 04:18:34;;;;;;;4.07;0.63;;;;;;;;;;5022221;28;20025;-72
2022/04/08 04:21:00;;;;;;;7.32;1.15;;;;;;;;;;5029846;28;20038;-71
2022/04/08 04:23:27;;;;;;;3.45;0.68;;;;;;;;;;5045909;28;20082;-71
2022/04/08 04:25:53;;;;;;;5.93;0.90;;;;;;;;;;5028761;28;20038;-70
2022/04/08 04:28:19;;;;;;;2.70;0.95;;;;;;;;;;5025928;28;20030;-70
2022/04/08 04:30:45;;;;;;;26.15;11.95;;;;;;;;;;5027444;28;20029;-72
2022/04/08 04:33:11;;;;;;;5.97;1.00;;;;;;;;;;5030287;28;20090;-71
2022/04/08 04:35:38;;;;;;;13.18;1.00;;;;;;;;;;5029963;28;20029;-71
2022/04/08 04:38:04;;;;;;;9.27;1.40;;;;;;;;;;5032610;28;20551;-71
2022/04/08 04:40:31;;;;;;;7.80;2.30;;;;;;;;;;5027623;28;20074;-72
2022/04/08 04:42:57;;;;;;;7.57;1.05;;;;;;;;;;5030463;28;20389;-72
2022/04/08 04:45:23;;;;;;;7.03;1.02;;;;;;;;;;5061252;28;20046;-71
2022/04/08 04:47:50;;;;;;;12.05;1.10;;;;;;;;;;5031076;28;20029;-71
2022/04/08 04:50:16;;;;;;;8.27;1.40;;;;;;;;;;5030423;28;20095;-71
2022/04/08 04:52:42;;;;;;;5.13;1.13;;;;;;;;;;5029688;28;20025;-71
2022/04/08 04:55:08;;;;;;;7.72;1.08;;;;;;;;;;5029102;28;20502;-71
2022/04/08 04:57:34;;;;;;;7.38;1.40;;;;;;;;;;5026671;28;20029;-71
2022/04/08 05:00:00;;;;;;;6.88;1.08;;;;;;;;;;5030735;28;20030;-70
2022/04/08 05:02:27;;;;;;;3.80;1.52;;;;;;;;;;5026107;28;20041;-70
2022/04/08 05:04:53;;;;;;;5.50;1.25;;;;;;;;;;5029716;28;20045;-70
2022/04/08 05:07:19;;;;;;;14.27;2.45;;;;;;;;;;5027559;28;20053;-70
2022/04/08 05:09:45;;;;;;;6.32;1.48;;;;;;;;;;5026817;28;20248;-70
2022/04/08 05:12:11;;;;;;;7.60;2.33;;;;;;;;;;5028807;28;20091;-70
2022/04/08 05:14:37;;;;;;;6.60;1.10;;;;;;;;;;5023948;28;20022;-70
2022/04/08 05:17:03;;;;;;;8.20;1.67;;;;;;;;;;5026504;28;20033;-70
2022/04/08 05:19:29;;;;;;;7.20;1.15;;;;;;;;;;5040704;28;20059;-70
2022/04/08 05:21:55;;;;;;;5.18;1.27;;;;;;;;;;5017390;28;20030;-70
2022/04/08 05:24:21;;;;;;;6.82;1.45;;;;;;;;;;5016299;28;20033;-70
2022/04/08 05:26:48;;;;;;;6.38;1.20;;;;;;;;;;5026434;28;20052;-71
2022/04/08 05:29:14;;;;;;;7.93;1.45;;;;;;;;;;5033245;28;20037;-71
2022/04/08 05:31:40;;;;;;;8.77;1.13;;;;;;;;;;5030772;28;20029;-71
2022/04/08 05:34:06;;;;;;;7.65;1.30;;;;;;;;;;5031313;28;20042;-70
2022/04/08 05:36:32;;;;;;;8.43;1.42;;;;;;;;;;5063275;28;20547;-72
2022/04/08 05:38:58;;;;;;;7.88;1.42;;;;;;;;;;5065295;28;20033;-72
2022/04/08 05:41:24;;;;;;;9.48;1.45;;;;;;;;;;5029233;28;20124;-70
2022/04/08 05:43:50;;;;;;;7.25;0.80;;;;;;;;;;5032070;28;20510;-70
2022/04/08 05:46:16;;;;;;;7.70;1.02;;;;;;;;;;5027325;28;20041;-70
2022/04/08 05:48:42;;;;;;;4.03;1.05;;;;;;;;;;5033323;28;20124;-70
2022/04/08 05:51:08;;;;;;;6.18;1.02;;;;;;;;;;5032355;28;20117;-70
2022/04/08 05:53:34;;;;;;;6.45;1.15;;;;;;;;;;5033777;28;20022;-70
2022/04/08 05:56:04;;;;;;;4.07;1.35;;;;;;;;;;5033711;28;20034;-70
2022/04/08 05:58:30;;;;;;;6.03;0.93;;;;;;;;;;5064058;28;20112;-72
2022/04/08 06:00:56;;;;;;;4.35;0.70;;;;;;;;;;5032863;28;20021;-70
2022/04/08 06:03:22;;;;;;;2.40;0.77;;;;;;;;;;5031503;28;20083;-70
2022/04/08 06:05:48;;;;;;;3.35;0.98;;;;;;;;;;5032448;28;20139;-69
2022/04/08 06:08:14;;;;;;;10.13;2.67;;;;;;;;;;5021459;28;20030;-70
2022/04/08 06:10:40;;;;;;;6.20;1.63;;;;;;;;;;5022030;28;20041;-71
2022/04/08 06:13:06;;;;;;;7.72;2.15;;;;;;;;;;5033479;28;20041;-70
2022/04/08 06:15:32;;;;;;;14.38;1.92;;;;;;;;;;5031101;28;20037;-70
2022/04/08 06:17:58;;;;;;;4.50;1.20;;;;;;;;;;5064731;28;20155;-70
2022/04/08 06:20:25;;;;;;;5.88;0.80;;;;;;;;;;5021797;28;20449;-70
2022/04/08 06:22:52;;;;;;;5.22;1.20;;;;;;;;;;5027704;28;20025;-71
2022/04/08 06:25:24;;;;;;;8.18;1.83;;;;;;;;;;5022775;28;20176;-71
2022/04/08 06:28:02;;;;;;;5.68;0.90;;;;;;;;;;5022178;28;20076;-72
2022/04/08 06:30:29;;;;;;;4.05;1.02;;;;;;;;;;5031743;28;20037;-72
2022/04/08 06:32:55;;;;;;;8.38;0.93;;;;;;;;;;5034356;28;20060;-72
2022/04/08 06:35:21;;;;;;;2.72;1.13;;;;;;;;;;5029419;28;20029;-73
2022/04/08 06:37:47;;;;;;;24.55;1.17;;;;;;;;;;5030971;28;20056;-73
2022/04/08 06:40:13;;;;;;;5.72;1.05;;;;;;;;;;5031558;28;20037;-71
2022/04/08 06:42:39;;;;;;;2.15;0.93;;;;;;;;;;5029195;28;20025;-72
2022/04/08 06:45:06;;;;;;;4.80;1.20;;;;;;;;;;5033448;28;20053;-72
2022/04/08 06:47:32;;;;;;;4.03;0.95;;;;;;;;;;5030906;28;20034;-72
2022/04/08 06:49:58;;;;;;;7.40;1.20;;;;;;;;;;5028906;28;20056;-72
2022/04/08 06:52:25;;;;;;;2.70;0.80;;;;;;;;;;5032231;28;20035;-72
2022/04/08 06:54:51;;;;;;;4.35;1.00;;;;;;;;;;5032852;28;20025;-73
2022/04/08 06:57:17;;;;;;;9.10;1.92;;;;;;;;;;5032667;28;20033;-72
2022/04/08 06:59:43;;;;;;;7.22;1.40;;;;;;;;;;5031974;28;20037;-73
2022/04/08 07:02:09;;;;;;;9.13;1.98;;;;;;;;;;5019270;28;20085;-72
2022/04/08 07:04:38;;;;;;;11.63;2.22;;;;;;;;;;5024111;28;20030;-72
2022/04/08 07:07:05;;;;;;;12.95;2.90;;;;;;;;;;5030064;28;20061;-72
2022/04/08 07:09:34;;;;;;;10.93;1.88;;;;;;;;;;5028082;28;20021;-71
2022/04/08 07:12:00;;;;;;;63.35;33.85;;;;;;;;;;5028759;28;20034;-74
2022/04/08 07:14:27;;;;;;;9.80;1.25;;;;;;;;;;5032961;28;20040;-70
2022/04/08 07:16:53;;;;;;;10.48;1.58;;;;;;;;;;5024705;28;20079;-70
2022/04/08 07:19:19;;;;;;;10.02;1.50;;;;;;;;;;5037203;28;20033;-72
2022/04/08 07:21:45;;;;;;;14.32;1.58;;;;;;;;;;5028028;28;20935;-72
2022/04/08 07:24:11;;;;;;;14.77;1.60;;;;;;;;;;5028975;28;20367;-72
2022/04/08 07:26:37;;;;;;;9.27;1.67;;;;;;;;;;5017274;28;20026;-72
2022/04/08 07:29:03;;;;;;;10.32;1.27;;;;;;;;;;5017917;28;20045;-72
2022/04/08 07:31:29;;;;;;;10.32;1.55;;;;;;;;;;5024107;28;20034;-72
2022/04/08 07:33:56;;;;;;;16.48;2.13;;;;;;;;;;5051302;28;20042;-71
2022/04/08 07:36:22;;;;;;;14.07;1.50;;;;;;;;;;5020784;28;20037;-71
2022/04/08 07:38:48;;;;;;;8.60;1.00;;;;;;;;;;5026251;28;20037;-71
2022/04/08 07:41:14;;;;;;;7.10;1.17;;;;;;;;;;5022936;28;20056;-71
2022/04/08 07:43:40;;;;;;;5.35;1.98;;;;;;;;;;5026607;28;20034;-71
2022/04/08 07:46:06;;;;;;;6.97;0.70;;;;;;;;;;5031740;28;20230;-71
2022/04/08 07:48:33;;;;;;;1.92;0.68;;;;;;;;;;5030819;28;20592;-72
2022/04/08 07:50:59;;;;;;;5.07;0.82;;;;;;;;;;5033391;28;20036;-72
2022/04/08 07:53:25;;;;;;;4.82;0.85;;;;;;;;;;5025393;28;20037;-72
2022/04/08 07:55:51;;;;;;;6.93;1.17;;;;;;;;;;5031094;28;20033;-71
2022/04/08 07:58:17;;;;;;;1.95;0.45;;;;;;;;;;5030204;28;20029;-71
2022/04/08 08:00:44;;;;;;;8.68;1.15;;;;;;;;;;5028247;28;20037;-72
2022/04/08 08:03:11;;;;;;;4.35;1.15;;;;;;;;;;5023794;28;20064;-71
2022/04/08 08:05:37;;;;;;;7.32;2.95;;;;;;;;;;5024264;28;20489;-70
2022/04/08 08:08:05;;;;;;;3.35;0.63;;;;;;;;;;5031966;28;20029;-71
2022/04/08 08:10:32;;;;;;;2.75;0.60;;;;;;;;;;5029698;28;20026;-72
2022/04/08 08:13:00;;;;;;;3.83;0.80;;;;;;;;;;5030765;28;20025;-71
2022/04/08 08:15:26;;;;;;;5.70;1.40;;;;;;;;;;5030404;28;20112;-71
2022/04/08 08:17:53;;;;;;;4.00;0.57;;;;;;;;;;5039443;28;20499;-71
2022/04/08 08:20:19;;;;;;;2.80;0.73;;;;;;;;;;5029833;28;20068;-71
2022/04/08 08:22:46;;;;;;;3.80;0.80;;;;;;;;;;5026757;28;20750;-71
2022/04/08 08:25:13;;;;;;;7.72;1.00;;;;;;;;;;5024535;28;20125;-71
2022/04/08 08:27:40;;;;;;;5.43;1.17;;;;;;;;;;5031645;28;20031;-72
2022/04/08 08:30:07;;;;;;;5.25;1.00;;;;;;;;;;5027411;28;20098;-72
2022/04/08 08:32:33;;;;;;;6.57;1.77;;;;;;;;;;5042584;28;20040;-72
2022/04/08 08:34:59;;;;;;;4.60;1.30;;;;;;;;;;5028996;28;20028;-71
2022/04/08 08:37:25;;;;;;;11.63;0.80;;;;;;;;;;5026633;28;20033;-71
2022/04/08 08:39:55;;;;;;;6.72;1.25;;;;;;;;;;5030665;28;20033;-71
2022/04/08 08:42:22;;;;;;;6.13;1.02;;;;;;;;;;5042923;28;20040;-71
2022/04/08 08:44:48;;;;;;;7.10;1.85;;;;;;;;;;5030335;28;20037;-70
2022/04/08 08:47:15;;;;;;;6.45;1.20;;;;;;;;;;5059890;28;20041;-70
2022/04/08 08:49:42;;;;;;;5.22;1.45;;;;;;;;;;5033570;28;20044;-71
2022/04/08 08:52:10;;;;;;;11.30;1.50;;;;;;;;;;5031763;28;20029;-71
2022/04/08 08:54:36;;;;;;;5.88;1.58;;;;;;;;;;5027425;28;20123;-71
2022/04/08 08:57:02;;;;;;;7.10;1.42;;;;;;;;;;5028436;28;20063;-70
2022/04/08 08:59:29;;;;;;;13.00;1.30;;;;;;;;;;5027432;28;20481;-71
2022/04/08 09:02:02;;;;;;;14.30;2.22;;;;;;;;;;5028016;28;20372;-71
2022/04/08 09:04:28;;;;;;;12.10;2.17;;;;;;;;;;5021998;28;20513;-70
2022/04/08 09:06:55;;;;;;;8.55;1.83;;;;;;;;;;5021964;28;20091;-71
2022/04/08 09:09:30;;;;;;;6.93;1.10;;;;;;;;;;5025824;28;20456;-72
2022/04/08 09:12:17;;;;;;;9.63;1.35;;;;;;;;;;5027387;28;20045;-71
2022/04/08 09:14:54;;;;;;;12.93;2.10;;;;;;;;;;5012178;28;20052;-71
2022/04/08 09:17:21;;;;;;;8.00;1.55;;;;;;;;;;5040937;28;20033;-71
2022/04/08 09:19:51;;;;;;;7.40;1.40;;;;;;;;;;5034671;28;20033;-71
2022/04/08 09:22:17;;;;;;;22.17;7.43;;;;;;;;;;5022271;28;20037;-70
2022/04/08 09:24:43;;;;;;;7.32;1.52;;;;;;;;;;5013960;28;20509;-71
2022/04/08 09:27:10;;;;;;;11.75;2.05;;;;;;;;;;5024498;28;20045;-71
2022/04/08 09:29:36;;;;;;;8.95;1.45;;;;;;;;;;5018809;28;20089;-71
2022/04/08 09:32:08;;;;;;;11.68;1.77;;;;;;;;;;5018522;28;20021;-72
2022/04/08 09:34:34;;;;;;;5.65;1.70;;;;;;;;;;5051766;28;20040;-72
2022/04/08 09:37:10;;;;;;;7.90;1.67;;;;;;;;;;5021547;28;20025;-71
2022/04/08 09:39:37;;;;;;;7.95;1.30;;;;;;;;;;5012937;28;20040;-71
2022/04/08 09:42:06;;;;;;;8.23;1.48;;;;;;;;;;5022764;28;20034;-72
2022/04/08 09:44:35;;;;;;;7.30;1.35;;;;;;;;;;5025887;28;20032;-72
2022/04/08 09:47:02;;;;;;;8.30;1.48;;;;;;;;;;5021541;28;20040;-71
2022/04/08 09:49:28;;;;;;;8.68;1.52;;;;;;;;;;5022665;28;20100;-71
2022/04/08 09:51:55;;;;;;;29.95;16.67;;;;;;;;;;5016400;28;20099;-72
2022/04/08 09:54:22;;;;;;;8.43;1.58;;;;;;;;;;5016355;28;20473;-71
2022/04/08 09:56:48;;;;;;;8.95;1.50;;;;;;;;;;5014826;28;20117;-71
2022/04/08 09:59:15;;;;;;;4.93;1.10;;;;;;;;;;5028051;28;20409;-71
2022/04/08 10:01:45;;;;;;;6.43;2.28;;;;;;;;;;5028345;28;20436;-71
2022/04/08 10:04:11;;;;;;;4.28;1.27;;;;;;;;;;5027352;28;20057;-71
2022/04/08 10:06:38;;;;;;;7.38;1.70;;;;;;;;;;5023847;28;20054;-71
2022/04/08 10:09:05;;;;;;;5.55;1.90;;;;;;;;;;5028100;28;20038;-70
2022/04/08 10:11:35;;;;;;;6.57;1.90;;;;;;;;;;5034618;28;20029;-70
2022/04/08 10:14:09;;;;;;;7.40;1.58;;;;;;;;;;5033915;28;20532;-70
2022/04/08 10:16:39;;;;;;;4.95;1.50;;;;;;;;;;5032674;28;20042;-70
2022/04/08 10:19:07;;;;;;;9.77;1.00;;;;;;;;;;5018020;28;20026;-71
2022/04/08 10:21:40;;;;;;;5.85;1.15;;;;;;;;;;5028165;28;20041;-71
2022/04/08 10:24:10;;;;;;;7.45;1.20;;;;;;;;;;5022378;28;20026;-71
2022/04/08 10:26:56;;;;;;;5.82;0.77;;;;;;;;;;5034025;28;20046;-71
2022/04/08 10:29:23;;;;;;;4.82;1.40;;;;;;;;;;5018500;28;20037;-71
2022/04/08 10:31:56;;;;;;;6.07;1.05;;;;;;;;;;5031047;28;20527;-71
2022/04/08 10:34:23;;;;;;;6.47;0.85;;;;;;;;;;5024146;28;20037;-71
2022/04/08 10:36:49;;;;;;;6.03;0.88;;;;;;;;;;5029682;28;20017;-71
2022/04/08 10:39:16;;;;;;;5.03;0.70;;;;;;;;;;5029232;28;20038;-72
2022/04/08 10:41:45;;;;;;;8.38;1.10;;;;;;;;;;5032045;28;20457;-72
2022/04/08 10:44:11;;;;;;;4.78;1.05;;;;;;;;;;5026425;28;20038;-71
2022/04/08 10:46:49;;;;;;;3.13;0.73;;;;;;;;;;5030137;28;20083;-72
2022/04/08 10:49:15;;;;;;;2.63;0.63;;;;;;;;;;5054287;28;20029;-72
2022/04/08 10:51:51;;;;;;;1.23;0.50;;;;;;;;;;5031222;28;20131;-72
2022/04/08 10:54:18;;;;;;;3.40;1.05;;;;;;;;;;5026891;28;20095;-72
2022/04/08 10:56:55;;;;;;;4.25;0.52;;;;;;;;;;5021031;28;20056;-72
2022/04/08 10:59:26;;;;;;;4.13;1.15;;;;;;;;;;5024996;28;20096;-72
2022/04/08 11:01:57;;;;;;;4.03;0.80;;;;;;;;;;5027615;28;20022;-72
2022/04/08 11:04:27;;;;;;;4.75;0.75;;;;;;;;;;5018466;28;20037;-72
2022/04/08 11:06:53;;;;;;;5.03;1.60;;;;;;;;;;5020290;28;20057;-71
2022/04/08 11:09:19;;;;;;;4.05;1.00;;;;;;;;;;5023957;28;20033;-69
2022/04/08 11:11:49;;;;;;;5.85;0.85;;;;;;;;;;5028996;28;20026;-71
2022/04/08 11:14:16;;;;;;;7.97;1.23;;;;;;;;;;5023072;28;20035;-71
2022/04/08 11:16:42;;;;;;;5.30;1.00;;;;;;;;;;5021394;28;20072;-71
2022/04/08 11:19:09;;;;;;;8.80;1.98;;;;;;;;;;5027394;28;20039;-72
2022/04/08 11:21:36;;;;;;;4.72;1.23;;;;;;;;;;5029241;28;20033;-72
2022/04/08 11:24:06;;;;;;;5.35;1.00;;;;;;;;;;5029994;28;20056;-72
2022/04/08 11:26:42;;;;;;;6.53;0.93;;;;;;;;;;5020787;28;20064;-72
2022/04/08 11:29:14;;;;;;;5.60;0.60;;;;;;;;;;5030713;28;20412;-72
2022/04/08 11:31:40;;;;;;;5.80;1.17;;;;;;;;;;5028720;28;20055;-71
2022/04/08 11:34:06;;;;;;;3.20;0.80;;;;;;;;;;5029657;28;20033;-71
2022/04/08 11:36:33;;;;;;;4.25;0.95;;;;;;;;;;5032062;28;20041;-72
2022/04/08 11:38:59;;;;;;;2.90;0.85;;;;;;;;;;5031416;28;20179;-72
2022/04/08 11:41:27;;;;;;;7.10;1.20;;;;;;;;;;5030243;28;20034;-72
2022/04/08 11:43:54;;;;;;;5.22;1.00;;;;;;;;;;5030847;28;20037;-72
2022/04/08 11:46:20;;;;;;;9.20;1.10;;;;;;;;;;5026266;28;20037;-71
2022/04/08 11:48:46;;;;;;;7.47;1.35;;;;;;;;;;5031838;28;20030;-72
2022/04/08 11:51:12;;;;;;;12.23;1.88;;;;;;;;;;5021548;28;20088;-72
2022/04/08 11:53:45;;;;;;;4.53;1.00;;;;;;;;;;5022717;28;20041;-71
2022/04/08 11:56:12;;;;;;;6.93;1.10;;;;;;;;;;5026042;28;20033;-71
2022/04/08 11:58:39;;;;;;;6.25;1.00;;;;;;;;;;5019958;28;20547;-71
2022/04/08 12:01:06;;;;;;;3.10;0.77;;;;;;;;;;5031533;28;20033;-71
2022/04/08 12:03:33;;;;;;;5.13;1.10;;;;;;;;;;5027274;28;20128;-71
2022/04/08 12:06:00;;;;;;;6.93;1.10;;;;;;;;;;5024644;28;20079;-72
2022/04/08 12:08:27;;;;;;;3.05;1.25;;;;;;;;;;5031925;28;20042;-71
2022/04/08 12:10:54;;;;;;;6.80;1.23;;;;;;;;;;5030212;28;20038;-71
2022/04/08 12:13:21;;;;;;;4.10;0.73;;;;;;;;;;5024813;28;20049;-71
2022/04/08 12:15:49;;;;;;;7.20;1.23;;;;;;;;;;5028967;28;20036;-71
2022/04/08 12:18:22;;;;;;;6.50;1.05;;;;;;;;;;5046321;28;20029;-71
2022/04/08 12:20:52;;;;;;;4.88;1.05;;;;;;;;;;5032173;28;20029;-71
2022/04/08 12:23:19;;;;;;;7.70;1.15;;;;;;;;;;5030952;28;20055;-71
2022/04/08 12:25:45;;;;;;;7.65;1.10;;;;;;;;;;5027743;28;20041;-71
2022/04/08 12:28:12;;;;;;;5.28;0.93;;;;;;;;;;5031618;28;20117;-71
2022/04/08 12:30:38;;;;;;;8.88;1.08;;;;;;;;;;5031787;28;20033;-71
2022/04/08 12:33:04;;;;;;;4.00;0.95;;;;;;;;;;5028232;28;20029;-71
2022/04/08 12:35:30;;;;;;;10.90;1.58;;;;;;;;;;5030731;28;20033;-71
2022/04/08 12:37:59;;;;;;;5.32;0.90;;;;;;;;;;5030763;28;20503;-71
2022/04/08 12:40:25;;;;;;;12.93;1.20;;;;;;;;;;5012971;28;20406;-71
2022/04/08 12:42:51;;;;;;;5.60;0.80;;;;;;;;;;5032270;28;20075;-71
2022/04/08 12:45:17;;;;;;;4.55;1.10;;;;;;;;;;5028349;28;20038;-71
2022/04/08 12:47:43;;;;;;;5.72;1.10;;;;;;;;;;5029116;28;20519;-71
2022/04/08 12:50:12;;;;;;;11.75;1.83;;;;;;;;;;5030732;28;20074;-71
2022/04/08 12:52:41;;;;;;;6.00;1.08;;;;;;;;;;5031458;28;20042;-71
2022/04/08 12:55:07;;;;;;;4.88;1.17;;;;;;;;;;5028724;28;20417;-70
2022/04/08 12:57:34;;;;;;;5.25;0.85;;;;;;;;;;5030077;28;20069;-70
2022/04/08 13:00:00;;;;;;;5.47;1.08;;;;;;;;;;5031399;28;20473;-70
2022/04/08 13:02:27;;;;;;;5.18;0.80;;;;;;;;;;5014286;28;20061;-71
2022/04/08 13:04:53;;;;;;;3.33;0.70;;;;;;;;;;5026357;28;20084;-71
2022/04/08 13:07:19;;;;;;;4.63;1.20;;;;;;;;;;5029922;28;20132;-71
2022/04/08 13:09:45;;;;;;;3.88;1.08;;;;;;;;;;5037755;28;20026;-71
2022/04/08 13:12:11;;;;;;;7.13;1.17;;;;;;;;;;5030171;28;20079;-71
2022/04/08 13:14:37;;;;;;;5.70;1.73;;;;;;;;;;5030928;28;20041;-71
2022/04/08 13:17:04;;;;;;;4.65;1.65;;;;;;;;;;5023568;28;20069;-71
2022/04/08 13:19:30;;;;;;;6.53;1.38;;;;;;;;;;5029843;28;20444;-71
2022/04/08 13:21:56;;;;;;;5.28;1.52;;;;;;;;;;5030591;28;20021;-71
2022/04/08 13:24:22;;;;;;;4.30;0.88;;;;;;;;;;5028437;28;20176;-71
2022/04/08 13:26:48;;;;;;;6.95;1.05;;;;;;;;;;5030853;28;20033;-71
2022/04/08 13:29:14;;;;;;;3.67;1.10;;;;;;;;;;5036565;28;20507;-71
2022/04/08 13:31:40;;;;;;;8.63;0.70;;;;;;;;;;5028469;28;20033;-71
2022/04/08 13:34:06;;;;;;;6.80;1.08;;;;;;;;;;5030460;28;20466;-71
2022/04/08 13:36:32;;;;;;;9.98;1.85;;;;;;;;;;5030469;28;20089;-71
2022/04/08 13:38:59;;;;;;;11.13;1.58;;;;;;;;;;5021723;28;20097;-71
2022/04/08 13:41:26;;;;;;;11.18;2.05;;;;;;;;;;5022802;28;20493;-71
2022/04/08 13:43:52;;;;;;;11.05;1.45;;;;;;;;;;5022621;28;20112;-70
2022/04/08 13:46:18;;;;;;;5.03;1.30;;;;;;;;;;5019843;28;20899;-71
2022/04/08 13:48:44;;;;;;;11.10;1.40;;;;;;;;;;5027571;28;20034;-71
2022/04/08 13:51:11;;;;;;;8.57;1.63;;;;;;;;;;5030916;28;20080;-71
2022/04/08 13:53:37;;;;;;;7.13;1.02;;;;;;;;;;5027412;28;20065;-71
2022/04/08 13:56:03;;;;;;;8.55;1.80;;;;;;;;;;5033601;28;20050;-71
2022/04/08 13:58:29;;;;;;;10.02;2.00;;;;;;;;;;5024497;28;20036;-71
2022/04/08 14:00:55;;;;;;;12.20;2.50;;;;;;;;;;5024832;28;20034;-71
2022/04/08 14:03:21;;;;;;;8.02;1.45;;;;;;;;;;5025594;28;20033;-70
2022/04/08 14:05:47;;;;;;;6.60;1.13;;;;;;;;;;5031937;28;20053;-70
2022/04/08 14:08:13;;;;;;;6.95;1.30;;;;;;;;;;5023522;28;20026;-70
2022/04/08 14:10:40;;;;;;;3.38;0.93;;;;;;;;;;5026498;28;20392;-70
2022/04/08 14:13:07;;;;;;;12.82;1.13;;;;;;;;;;5016491;28;20382;-70
2022/04/08 14:15:33;;;;;;;9.35;2.25;;;;;;;;;;5055913;28;20087;-70
2022/04/08 14:18:00;;;;;;;8.18;1.23;;;;;;;;;;5027179;28;20084;-72
2022/04/08 14:20:27;;;;;;;8.30;1.30;;;;;;;;;;5052199;28;20500;-69
2022/04/08 14:22:56;;;;;;;13.25;1.30;;;;;;;;;;5030601;28;20037;-72
2022/04/08 14:25:22;;;;;;;6.88;1.00;;;;;;;;;;5033192;28;20412;-72
2022/04/08 14:27:49;;;;;;;14.60;3.35;;;;;;;;;;5032167;28;20037;-70
2022/04/08 14:30:15;;;;;;;7.72;1.30;;;;;;;;;;5032379;28;20100;-71
2022/04/08 14:32:41;;;;;;;15.02;2.72;;;;;;;;;;5033232;28;20033;-71
2022/04/08 14:35:07;;;;;;;9.15;1.38;;;;;;;;;;5033583;28;20052;-71
2022/04/08 14:37:33;;;;;;;7.28;1.60;;;;;;;;;;5034103;28;20041;-71